createdAt,value
2023-02-17T00:00:20.782Z,2.08
2023-02-17T00:02:48.949Z,2.22
2023-02-17T00:05:15.970Z,1.63
2023-02-17T00:07:42.843Z,1.80
2023-02-17T00:10:10.279Z,1.20
2023-02-17T00:12:37.193Z,1.02
2023-02-17T00:15:04.586Z,1.35
2023-02-17T00:17:32.124Z,1.52
2023-02-17T00:20:00.240Z,1.40
2023-02-17T00:22:27.246Z,2.00
2023-02-17T00:24:53.905Z,1.48
2023-02-17T00:27:20.843Z,1.48
2023-02-17T00:29:47.635Z,1.50
2023-02-17T00:32:14.417Z,1.58
2023-02-17T00:34:42.663Z,1.42
2023-02-17T00:37:10.962Z,1.80
2023-02-17T00:39:37.624Z,0.85
2023-02-17T00:42:04.386Z,1.00
2023-02-17T00:44:31.160Z,1.20
2023-02-17T00:46:57.842Z,1.17
2023-02-17T00:49:26.350Z,1.05
2023-02-17T00:51:53.694Z,1.40
2023-02-17T00:54:21.677Z,1.25
2023-02-17T00:56:48.498Z,0.73
2023-02-17T00:59:15.187Z,0.95
2023-02-17T01:01:42.235Z,0.93
2023-02-17T01:04:09.706Z,1.02
2023-02-17T01:06:38.362Z,1.10
2023-02-17T01:09:09.262Z,1.15
2023-02-17T01:11:39.209Z,0.95
2023-02-17T01:14:06.372Z,1.00
2023-02-17T01:16:35.377Z,1.10
2023-02-17T01:19:02.630Z,1.08
2023-02-17T01:21:30.737Z,0.82
2023-02-17T01:23:59.265Z,1.40
2023-02-17T01:26:28.018Z,0.95
2023-02-17T01:28:56.290Z,0.93
2023-02-17T01:31:23.262Z,1.00
2023-02-17T01:33:50.297Z,0.98
2023-02-17T01:36:19.077Z,1.00
2023-02-17T01:38:46.635Z,0.73
2023-02-17T01:41:14.966Z,1.20
2023-02-17T01:43:42.079Z,0.85
2023-02-17T01:46:11.065Z,0.65
2023-02-17T01:48:42.817Z,1.08
2023-02-17T01:51:14.568Z,1.20
2023-02-17T01:53:46.746Z,1.35
2023-02-17T01:56:16.628Z,1.73
2023-02-17T01:58:47.216Z,1.35
2023-02-17T02:01:16.578Z,1.67
2023-02-17T02:03:44.027Z,1.27
2023-02-17T02:06:16.077Z,1.98
2023-02-17T02:08:49.150Z,1.25
2023-02-17T02:11:16.077Z,1.33
2023-02-17T02:13:46.077Z,0.90
2023-02-17T02:16:20.968Z,0.88
2023-02-17T02:18:59.832Z,1.40
2023-02-17T02:21:53.689Z,1.02
2023-02-17T02:24:33.401Z,0.95
2023-02-17T02:27:30.125Z,1.08
2023-02-17T02:30:20.526Z,1.00
2023-02-17T02:32:58.268Z,1.17
2023-02-17T02:35:34.316Z,1.17
2023-02-17T02:40:40.155Z,0.93
2023-02-17T02:43:07.682Z,1.25
2023-02-17T02:45:35.462Z,0.80
2023-02-17T02:48:04.190Z,1.08
2023-02-17T02:50:54.386Z,1.23
2023-02-17T02:53:49.339Z,1.67
2023-02-17T02:56:27.511Z,1.42
2023-02-17T02:59:06.889Z,1.33
2023-02-17T03:01:41.884Z,1.67
2023-02-17T03:04:17.817Z,1.05
2023-02-17T03:06:49.108Z,1.55
2023-02-17T03:09:20.505Z,1.23
2023-02-17T03:11:48.216Z,1.42
2023-02-17T03:14:17.563Z,1.58
2023-02-17T03:16:44.662Z,1.35
2023-02-17T03:19:14.804Z,1.52
2023-02-17T03:21:46.184Z,1.85
2023-02-17T03:24:13.048Z,1.58
2023-02-17T03:26:39.818Z,1.92
2023-02-17T03:29:07.107Z,1.42
2023-02-17T03:31:34.698Z,1.55
2023-02-17T03:34:02.749Z,1.52
2023-02-17T03:36:30.926Z,1.77
2023-02-17T03:38:57.800Z,2.17
2023-02-17T03:41:24.499Z,2.33
2023-02-17T03:43:51.665Z,1.63
2023-02-17T03:46:18.698Z,1.45
2023-02-17T03:48:45.466Z,1.30
2023-02-17T03:51:14.793Z,0.73
2023-02-17T03:53:43.614Z,1.17
2023-02-17T03:56:10.737Z,0.90
2023-02-17T03:58:37.974Z,0.82
2023-02-17T04:01:05.151Z,0.55
2023-02-17T04:03:32.395Z,0.90
2023-02-17T04:05:59.369Z,0.70
2023-02-17T04:08:26.445Z,0.80
2023-02-17T04:10:55.766Z,1.00
2023-02-17T04:13:22.691Z,1.17
2023-02-17T04:15:49.735Z,0.75
2023-02-17T04:18:17.456Z,0.43
2023-02-17T04:20:44.445Z,0.70
2023-02-17T04:23:11.449Z,1.15
2023-02-17T04:25:38.387Z,0.65
2023-02-17T04:28:08.060Z,0.55
2023-02-17T04:30:35.164Z,0.52
2023-02-17T04:33:02.218Z,0.70
2023-02-17T04:35:29.216Z,0.82
2023-02-17T04:37:55.892Z,0.52
2023-02-17T04:40:23.158Z,0.75
2023-02-17T04:42:49.824Z,0.80
2023-02-17T04:45:17.920Z,0.88
2023-02-17T04:47:44.569Z,0.90
2023-02-17T04:50:12.015Z,0.73
2023-02-17T04:52:39.025Z,0.52
2023-02-17T04:55:06.739Z,0.88
2023-02-17T04:57:33.810Z,0.70
2023-02-17T05:00:00.484Z,0.73
2023-02-17T05:02:29.059Z,0.63
2023-02-17T05:04:55.686Z,0.57
2023-02-17T05:07:23.384Z,0.73
2023-02-17T05:09:49.999Z,0.63
2023-02-17T05:12:16.957Z,0.73
2023-02-17T05:14:43.556Z,0.70
2023-02-17T05:17:10.389Z,0.68
2023-02-17T05:19:38.376Z,0.75
2023-02-17T05:22:05.096Z,0.55
2023-02-17T05:24:32.065Z,0.63
2023-02-17T05:26:58.683Z,0.52
2023-02-17T05:29:25.476Z,0.55
2023-02-17T05:31:52.164Z,0.90
2023-02-17T05:34:19.057Z,0.85
2023-02-17T05:36:50.309Z,0.65
2023-02-17T05:39:17.082Z,0.45
2023-02-17T05:41:43.685Z,0.43
2023-02-17T05:44:10.381Z,0.63
2023-02-17T05:46:37.130Z,0.50
2023-02-17T05:49:03.788Z,0.50
2023-02-17T05:51:30.508Z,0.35
2023-02-17T05:53:58.910Z,0.65
2023-02-17T05:56:25.652Z,0.40
2023-02-17T05:58:52.388Z,0.63
2023-02-17T06:01:19.228Z,0.95
2023-02-17T06:03:46.216Z,0.65
2023-02-17T06:06:12.866Z,0.40
2023-02-17T06:08:40.822Z,0.60
2023-02-17T06:11:09.376Z,0.65
2023-02-17T06:13:36.434Z,0.80
2023-02-17T06:16:03.865Z,1.83
2023-02-17T06:18:30.706Z,1.73
2023-02-17T06:20:57.920Z,1.98
2023-02-17T06:23:25.461Z,3.38
2023-02-17T06:25:52.347Z,3.53
2023-02-17T06:28:20.320Z,1.98
2023-02-17T06:30:47.004Z,1.92
2023-02-17T06:33:13.669Z,1.52
2023-02-17T06:35:40.553Z,1.90
2023-02-17T06:38:07.595Z,2.65
2023-02-17T06:40:34.287Z,5.15
2023-02-17T06:43:01.047Z,2.55
2023-02-17T06:45:29.140Z,3.25
2023-02-17T06:47:55.866Z,3.20
2023-02-17T06:50:22.731Z,3.42
2023-02-17T06:52:50.112Z,1.92
2023-02-17T06:55:17.083Z,2.10
2023-02-17T06:57:44.179Z,1.45
2023-02-17T07:00:11.670Z,2.55
2023-02-17T07:02:40.610Z,3.03
2023-02-17T07:05:08.216Z,2.85
2023-02-17T07:07:35.211Z,1.58
2023-02-17T07:10:03.297Z,1.27
2023-02-17T07:12:30.106Z,1.42
2023-02-17T07:14:56.947Z,0.65
2023-02-17T07:17:23.863Z,0.73
2023-02-17T07:19:51.853Z,0.70
2023-02-17T07:22:18.670Z,0.52
2023-02-17T07:24:45.622Z,0.45
2023-02-17T07:27:12.277Z,0.52
2023-02-17T07:29:38.971Z,0.50
2023-02-17T07:32:07.201Z,0.75
2023-02-17T07:34:33.868Z,0.95
2023-02-17T07:37:01.921Z,0.70
2023-02-17T07:39:28.584Z,0.60
2023-02-17T07:42:00.657Z,0.47
2023-02-17T07:44:27.987Z,0.65
2023-02-17T07:46:55.151Z,0.63
2023-02-17T07:53:50.784Z,0.73
2023-02-17T07:56:19.538Z,0.93
2023-02-17T07:58:46.307Z,1.05
2023-02-17T08:01:14.695Z,0.63
2023-02-17T08:03:41.850Z,0.50
2023-02-17T08:06:09.933Z,0.25
2023-02-17T08:08:55.697Z,0.80
2023-02-17T08:11:44.004Z,0.88
2023-02-17T08:14:13.197Z,0.80
2023-02-17T08:16:40.067Z,0.50
2023-02-17T08:19:07.686Z,0.65
2023-02-17T08:21:34.784Z,0.68
2023-02-17T08:24:01.450Z,0.45
2023-02-17T08:26:29.719Z,0.73
2023-02-17T08:28:56.592Z,0.63
2023-02-17T08:31:26.367Z,0.45
2023-02-17T08:33:53.712Z,0.55
2023-02-17T08:36:22.266Z,0.50
2023-02-17T08:38:51.227Z,0.50
2023-02-17T08:41:20.917Z,0.60
2023-02-17T08:43:50.009Z,0.55
2023-02-17T08:46:18.831Z,0.60
2023-02-17T08:48:46.011Z,0.77
2023-02-17T08:51:14.253Z,0.32
2023-02-17T08:53:40.931Z,0.47
2023-02-17T08:56:08.420Z,0.68
2023-02-17T08:58:38.873Z,0.82
2023-02-17T09:01:07.036Z,0.85
2023-02-17T09:03:34.076Z,0.57
2023-02-17T09:06:00.816Z,0.60
2023-02-17T09:08:27.512Z,0.70
2023-02-17T09:10:54.283Z,0.68
2023-02-17T09:13:21.065Z,0.82
2023-02-17T09:15:47.991Z,0.65
2023-02-17T09:18:16.599Z,0.63
2023-02-17T09:20:43.341Z,1.00
2023-02-17T09:23:10.182Z,0.50
2023-02-17T09:25:36.999Z,0.68
2023-02-17T09:28:04.030Z,0.77
2023-02-17T09:30:31.244Z,0.75
2023-02-17T09:32:58.951Z,0.98
2023-02-17T09:35:27.570Z,0.63
2023-02-17T09:37:54.431Z,0.90
2023-02-17T09:40:25.336Z,1.08
2023-02-17T09:42:52.043Z,0.65
2023-02-17T09:45:25.610Z,0.88
2023-02-17T09:47:55.084Z,0.43
2023-02-17T09:50:26.635Z,0.75
2023-02-17T09:52:59.728Z,0.52
2023-02-17T09:55:30.842Z,0.28
2023-02-17T09:58:06.126Z,0.60
2023-02-17T10:00:35.723Z,0.57
2023-02-17T10:03:10.270Z,0.55
2023-02-17T10:08:16.945Z,1.10
2023-02-17T10:10:51.597Z,0.77
2023-02-17T10:13:21.980Z,0.55
2023-02-17T10:15:51.620Z,0.68
2023-02-17T10:18:26.434Z,0.82
2023-02-17T10:20:59.816Z,0.70
2023-02-17T10:23:29.440Z,0.63
2023-02-17T10:26:11.247Z,1.17
2023-02-17T10:28:50.785Z,0.88
2023-02-17T10:31:32.025Z,0.65
2023-02-17T10:34:03.985Z,1.00
2023-02-17T10:36:42.447Z,1.25
2023-02-17T10:39:14.583Z,0.50
2023-02-17T10:41:46.390Z,0.38
2023-02-17T10:44:17.694Z,0.77
2023-02-17T10:46:44.876Z,0.68
2023-02-17T10:49:20.377Z,0.50
2023-02-17T10:51:47.079Z,0.52
2023-02-17T10:54:25.518Z,0.73
2023-02-17T10:56:56.032Z,0.40
2023-02-17T10:59:27.975Z,0.52
2023-02-17T11:01:58.367Z,0.45
2023-02-17T11:04:25.122Z,0.68
2023-02-17T11:06:55.375Z,0.47
2023-02-17T11:09:33.273Z,0.73
2023-02-17T11:12:03.054Z,1.02
2023-02-17T11:14:32.064Z,1.10
2023-02-17T11:17:00.697Z,0.43
2023-02-17T11:19:29.504Z,0.70
2023-02-17T11:21:59.048Z,0.47
2023-02-17T11:24:28.837Z,0.60
2023-02-17T11:26:59.156Z,0.63
2023-02-17T11:29:26.784Z,0.63
2023-02-17T11:31:55.999Z,0.47
2023-02-17T11:34:25.256Z,0.60
2023-02-17T11:36:59.344Z,0.65
2023-02-17T11:39:27.891Z,0.45
2023-02-17T11:41:54.680Z,0.55
2023-02-17T11:44:25.805Z,0.80
2023-02-17T11:47:00.776Z,0.47
2023-02-17T11:49:44.039Z,0.60
2023-02-17T11:52:33.001Z,0.50
2023-02-17T11:55:15.721Z,0.73
2023-02-17T11:57:45.840Z,0.55
2023-02-17T12:00:17.842Z,0.32
2023-02-17T12:02:59.792Z,0.40
2023-02-17T12:05:35.806Z,0.52
2023-02-17T12:08:15.046Z,0.55
2023-02-17T12:11:00.508Z,0.85
2023-02-17T12:13:37.197Z,0.93
2023-02-17T12:16:18.592Z,0.38
2023-02-17T12:18:54.051Z,0.43
2023-02-17T12:21:43.879Z,0.32
2023-02-17T12:24:29.631Z,0.40
2023-02-17T12:27:06.165Z,0.45
2023-02-17T12:29:51.991Z,0.52
2023-02-17T12:32:33.663Z,0.22
2023-02-17T12:35:12.905Z,0.63
2023-02-17T12:37:48.749Z,0.43
2023-02-17T12:40:28.382Z,0.45
2023-02-17T12:43:00.478Z,0.77
2023-02-17T12:45:35.627Z,0.52
2023-02-17T12:48:07.033Z,0.22
2023-02-17T12:50:38.274Z,0.40
2023-02-17T12:53:13.178Z,0.77
2023-02-17T12:55:48.536Z,0.35
2023-02-17T12:58:21.514Z,0.40
2023-02-17T13:00:52.515Z,0.25
2023-02-17T13:03:19.496Z,0.30
2023-02-17T13:05:52.410Z,0.45
2023-02-17T13:08:23.147Z,0.70
2023-02-17T13:11:01.030Z,0.38
2023-02-17T13:13:31.492Z,0.45
2023-02-17T13:16:05.461Z,0.32
2023-02-17T13:18:34.177Z,0.22
2023-02-17T13:21:14.671Z,0.40
2023-02-17T13:23:43.003Z,0.40
2023-02-17T13:26:33.861Z,0.35
2023-02-17T13:29:17.996Z,0.22
2023-02-17T13:31:48.063Z,0.63
2023-02-17T13:34:25.709Z,0.32
2023-02-17T13:36:52.606Z,0.70
2023-02-17T13:39:35.834Z,0.63
2023-02-17T13:42:03.196Z,0.45
2023-02-17T13:44:34.041Z,0.30
2023-02-17T13:47:04.321Z,0.35
2023-02-17T13:49:33.951Z,0.30
2023-02-17T13:52:09.156Z,0.20
2023-02-17T13:54:36.072Z,0.52
2023-02-17T13:57:02.794Z,0.50
2023-02-17T13:59:31.652Z,0.43
2023-02-17T14:01:58.503Z,0.22
2023-02-17T14:04:28.068Z,0.38
2023-02-17T14:06:58.123Z,0.28
2023-02-17T14:09:26.793Z,0.30
2023-02-17T14:11:55.316Z,0.32
2023-02-17T14:14:24.771Z,0.28
2023-02-17T14:17:26.726Z,0.43
2023-02-17T14:19:53.415Z,0.32
2023-02-17T14:22:26.385Z,0.45
2023-02-17T14:25:03.116Z,0.25
2023-02-17T14:27:41.349Z,0.13
2023-02-17T14:30:15.827Z,0.30
2023-02-17T14:32:45.232Z,0.40
2023-02-17T14:35:30.322Z,0.65
2023-02-17T14:38:07.855Z,0.43
2023-02-17T14:40:35.415Z,0.22
2023-02-17T14:43:02.280Z,0.32
2023-02-17T14:45:30.702Z,0.73
2023-02-17T14:48:00.431Z,0.32
2023-02-17T14:50:30.258Z,0.30
2023-02-17T23:02:34.192Z,0.50
